tititudorancea.com
Station Historical Data
Daily Summary for June 19, 2018 Units:  Metric    English   Both
« Previous Day
Next Day »
Daily Weekly Monthly Yearly Custom
  High: Low: Average:
Temperature: -17.8 °C -0.7 °C 5.8 °C
Dew Point: -17.8 °C -1.4 °C 2.9 °C
Humidity: Humidity % 62 % 83 %
Wind Speed: 0 km/h 0 km/h 6.9 km/h
Wind Gust: 0 km/h - -
Wind:- - SE
Pressure: 0 hPa 1025.3 hPa -
Precipitation: 0.25 mm    
Historical Graphs
 
 
Ararat weather Find more about Weather in Ararat, AU


 



 


Tabular Data for June 19, 2018
Time Temperature Dew Point Pressure Wind Wind Speed Wind Gust Humidity Rainfall Rate (Hourly)
-17.8 °C -17.8 °C 0 hPa Calm     Humidity % 0 mm
00:04 4.6 °C 3.4 °C 1027.3 hPa South 5.6 km/h 2.3 km/h 92 % 0 mm
00:09 4.6 °C 3.4 °C 1027.3 hPa South 3.7 km/h 0.6 km/h 92 % 0 mm
00:14 4.5 °C 3.3 °C 1027.3 hPa South 1.9 km/h 1.4 km/h 92 % 0 mm
00:19 4.4 °C 3.3 °C 1027.3 hPa South 3.7 km/h 1.4 km/h 92 % 0 mm
00:24 4.3 °C 3.1 °C 1027.3 hPa South 1.9 km/h   92 % 0 mm
00:29 4.2 °C 3 °C 1027 hPa South 1.9 km/h 1 km/h 92 % 0 mm
00:34 4.1 °C 3.1 °C 1027 hPa North 1.9 km/h   93 % 0 mm
00:39 4.1 °C 3 °C 1027 hPa South 3.7 km/h 1.1 km/h 93 % 0 mm
00:44 4 °C 2.9 °C 1027 hPa South 6.4 km/h 3.1 km/h 93 % 0 mm
00:49 3.8 °C 2.7 °C 1027 hPa South 3.7 km/h 3.1 km/h 92 % 0 mm
00:54 3.7 °C 2.7 °C 1027.3 hPa South 5.6 km/h 2.1 km/h 93 % 0 mm
00:59 3.7 °C 2.7 °C 1027.3 hPa South 3.7 km/h 1.9 km/h 93 % 0 mm
01:04 3.7 °C 2.7 °C 1027.3 hPa North 5.6 km/h 2.9 km/h 93 % 0 mm
01:09 3.7 °C 2.7 °C 1027.3 hPa North 5.6 km/h 2.6 km/h 93 % 0 mm
01:14 3.6 °C 2.6 °C 1027.3 hPa South 3.7 km/h 2.3 km/h 93 % 0 mm
01:19 3.5 °C 2.5 °C 1027.3 hPa South 3.7 km/h 2.3 km/h 93 % 0 mm
01:24 3.5 °C 2.6 °C 1027.3 hPa North 1.9 km/h   94 % 0 mm
01:29 3.4 °C 2.4 °C 1027.3 hPa South 3.7 km/h 2.1 km/h 93 % 0 mm
01:34 3.4 °C 2.6 °C 1027.7 hPa North 5.6 km/h 5.5 km/h 94 % 0 mm
01:39 3.7 °C 2.8 °C 1027.7 hPa South 5.6 km/h 4.3 km/h 94 % 0 mm
01:44 3.7 °C 2.8 °C 1027.3 hPa South 3.7 km/h 2.9 km/h 94 % 0 mm
01:49 3.6 °C 2.7 °C 1027.3 hPa South 8 km/h 4.2 km/h 94 % 0 mm
01:54 3.4 °C 2.6 °C 1027.7 hPa South 8 km/h 6.4 km/h 94 % 0 mm
01:59 3.7 °C 3 °C 1027.7 hPa South 6.4 km/h 6.6 km/h 95 % 0 mm
02:04 3.7 °C 2.8 °C 1027.7 hPa South 7.4 km/h 5.5 km/h 94 % 0 mm
02:09 3.8 °C 2.9 °C 1027.7 hPa South 6.4 km/h 5.8 km/h 94 % 0 mm
02:14 3.8 °C 2.9 °C 1027.7 hPa South 6.4 km/h 6.1 km/h 94 % 0 mm
02:19 3.8 °C 2.9 °C 1027.7 hPa South 9.3 km/h 5.6 km/h 94 % 0 mm
02:24 3.9 °C 3 °C 1027.3 hPa South 8 km/h 7.4 km/h 94 % 0 mm
02:29 3.8 °C 2.9 °C 1027.3 hPa South 9.3 km/h 3.4 km/h 94 % 0 mm
02:34 3.5 °C 2.6 °C 1027.3 hPa South 5.6 km/h 2.9 km/h 94 % 0 mm
02:39 3.4 °C 2.6 °C 1027.3 hPa South 5.6 km/h   94 % 0 mm
02:44 3.4 °C 2.5 °C 1027.7 hPa Calm     94 % 0 mm
02:49 3.2 °C 2.3 °C 1027.7 hPa Calm     94 % 0 mm
02:54 3.1 °C 2.2 °C 1027.7 hPa North 3.7 km/h 2.6 km/h 94 % 0 mm
02:59 3.1 °C 2.2 °C 1027.7 hPa South 7.4 km/h 4.3 km/h 94 % 0 mm
03:04 3 °C 2.1 °C 1027.7 hPa North 1.9 km/h 0.6 km/h 94 % 0 mm
03:09 2.8 °C 1.9 °C 1027.7 hPa South 3.2 km/h 2.1 km/h 94 % 0 mm
03:14 2.8 °C 1.9 °C 1027.7 hPa North 1.9 km/h   94 % 0 mm
03:19 2.7 °C 1.8 °C 1027.3 hPa Calm     94 % 0 mm
03:24 2.6 °C 1.7 °C 1027.3 hPa Calm     94 % 0 mm
03:29 2.3 °C 1.4 °C 1027.3 hPa South 3.7 km/h 0.2 km/h 94 % 0 mm
03:34 2.1 °C 1.1 °C 1027.3 hPa Calm     93 % 0 mm
03:39 1.8 °C 0.9 °C 1027 hPa Calm     94 % 0 mm
03:44 1.6 °C 0.7 °C 1027 hPa Calm     94 % 0 mm
03:49 1.4 °C 0.6 °C 1027 hPa South 3.7 km/h 2.3 km/h 94 % 0 mm
03:54 1.3 °C 0.4 °C 1027 hPa South 3.2 km/h 1.3 km/h 94 % 0 mm
03:59 1.1 °C 0.3 °C 1027 hPa South 3.7 km/h 2.6 km/h 94 % 0 mm
04:04 0.9 °C 0.1 °C 1027 hPa South 5.6 km/h 2.4 km/h 94 % 0 mm
04:09 0.8 °C -0.1 °C 1027 hPa North 6.4 km/h 3.4 km/h 94 % 0.25 mm
04:14 0.7 °C -0.1 °C 1027.3 hPa South 3.7 km/h 3.4 km/h 94 % 0.25 mm
04:19 0.8 °C -0.1 °C 1027.3 hPa South 5.6 km/h 3.4 km/h 94 % 0.25 mm
04:24 0.9 °C 0.2 °C 1027.3 hPa South 1.9 km/h 2.3 km/h 95 % 0.25 mm
04:29 1.1 °C 0.3 °C 1027.7 hPa North 4.8 km/h 4.3 km/h 95 % 0.25 mm
04:34 1.1 °C 0.4 °C 1027.7 hPa South 1.9 km/h 0.8 km/h 95 % 0.25 mm
04:39 1.1 °C 0.4 °C 1027.7 hPa Calm     95 % 0.25 mm
04:44 1.1 °C 0.3 °C 1028 hPa South 3.7 km/h 1.3 km/h 95 % 0.25 mm
04:49 1.2 °C 0.4 °C 1028 hPa Calm     95 % 0.25 mm
04:54 1.1 °C 0.4 °C 1028 hPa North 3.2 km/h 2.6 km/h 95 % 0.25 mm
04:59 1 °C 0.3 °C 1028.3 hPa Calm     95 % 0.25 mm
05:04 1 °C 0.3 °C 1028.3 hPa Calm     95 % 0.25 mm
05:09 0.9 °C 0.2 °C 1028.3 hPa Calm     95 % 0 mm
05:14 0.7 °C -0.1 °C 1028.3 hPa Calm     94 % 0 mm
05:19 0.7 °C -0.1 °C 1028.3 hPa Calm     95 % 0 mm
05:24 0.6 °C -0.1 °C 1028.7 hPa Calm     95 % 0 mm
05:29 0.4 °C -0.4 °C 1028.7 hPa South 3.7 km/h   94 % 0 mm
05:34 0.2 °C -0.6 °C 1028.7 hPa South 1.9 km/h 1.1 km/h 94 % 0 mm
05:39 0.1 °C -0.8 °C 1028.7 hPa South 3.7 km/h 1.3 km/h 94 % 0 mm
05:44 -0.1 °C -0.9 °C 1028.7 hPa North 5.6 km/h 2.3 km/h 94 % 0 mm
05:49 -0.1 °C -0.8 °C 1028.7 hPa South 1.9 km/h   95 % 0 mm
05:54 -0.2 °C -0.9 °C 1028.7 hPa North 1.9 km/h 0.3 km/h 95 % 0 mm
05:59 -0.2 °C -0.9 °C 1028.7 hPa South 3.7 km/h 2.7 km/h 95 % 0 mm
06:04 -0.2 °C -0.9 °C 1028.7 hPa Calm     95 % 0 mm
06:09 -0.2 °C -0.9 °C 1028.7 hPa Calm     95 % 0 mm
06:14 -0.3 °C -1.1 °C 1028.7 hPa Calm     95 % 0 mm
06:19 -0.4 °C -1.1 °C 1028.7 hPa Calm     95 % 0 mm
06:24 -0.4 °C -1.1 °C 1028.7 hPa North 1.9 km/h   95 % 0 mm
06:29 -0.4 °C -1.1 °C 1028.7 hPa Calm     95 % 0 mm
06:34 -0.4 °C -1.1 °C 1028.7 hPa Calm     95 % 0 mm
06:39 -0.4 °C -1.1 °C 1028.3 hPa South 3.7 km/h 2.7 km/h 95 % 0 mm
06:44 -0.4 °C -1.1 °C 1028.3 hPa South 1.9 km/h   95 % 0 mm
06:49 -0.3 °C -1 °C 1028.3 hPa North 3.7 km/h 2.3 km/h 95 % 0 mm
06:54 -0.2 °C -0.9 °C 1028.3 hPa Calm     95 % 0 mm
06:59 -0.2 °C -0.9 °C 1028 hPa Calm     95 % 0 mm
07:04 -0.3 °C -1 °C 1028 hPa Calm     95 % 0 mm
07:09 -0.3 °C -1 °C 1028 hPa Calm     95 % 0 mm
07:14 -0.3 °C -1.1 °C 1028 hPa Calm     95 % 0 mm
07:19 -0.4 °C -1.1 °C 1028 hPa Calm     95 % 0 mm
07:24 -0.4 °C -1.1 °C 1028 hPa Calm     95 % 0 mm
07:29 -0.4 °C -1.1 °C 1028 hPa Calm     95 % 0 mm
07:34 -0.4 °C -1.1 °C 1028 hPa Calm     95 % 0 mm
07:39 -0.4 °C -1.2 °C 1028 hPa Calm     95 % 0 mm
07:44 -0.4 °C -1.2 °C 1028 hPa Calm     95 % 0 mm
07:49 -0.5 °C -1.2 °C 1028 hPa Calm     95 % 0 mm
07:54 -0.6 °C -1.3 °C 1028 hPa Calm     95 % 0 mm
07:59 -0.6 °C -1.3 °C 1027.7 hPa Calm     95 % 0 mm
08:04 -0.7 °C -1.4 °C 1027.7 hPa SSW 3.2 km/h 2.6 km/h 95 % 0 mm
08:09 -0.6 °C -1.3 °C 1027.7 hPa North 3.7 km/h 2.4 km/h 95 % 0 mm
08:14 -0.3 °C -0.9 °C 1027.7 hPa SSW 3.7 km/h 1.6 km/h 96 % 0 mm
08:19 -0.1 °C -0.6 °C 1027.7 hPa North 5.6 km/h 4.3 km/h 96 % 0 mm
08:24 0.3 °C -0.3 °C 1027.7 hPa SSW 5.6 km/h 4.3 km/h 96 % 0 mm
08:29 0.7 °C 0.2 °C 1027.3 hPa SSW 3.7 km/h 3.1 km/h 96 % 0 mm
08:34 1.1 °C 0.6 °C 1027.3 hPa Calm     96 % 0 mm
08:39 1.5 °C 1.1 °C 1027.3 hPa Calm     97 % 0 mm
08:42 1.7 °C 1.2 °C 1027 hPa Calm     97 % 0 mm
08:49 1.9 °C 1.4 °C 1027 hPa Calm     97 % 0 mm
08:54 1.9 °C 1.4 °C 1027 hPa Calm     96 % 0 mm
08:59 1.9 °C 1.3 °C 1027 hPa Calm     96 % 0 mm
09:04 2 °C 1.4 °C 1027.3 hPa Calm     96 % 0 mm
09:09 2.2 °C 1.7 °C 1027.3 hPa Calm     96 % 0 mm
09:14 2.6 °C 2.1 °C 1027.3 hPa SSW 5.6 km/h 2.7 km/h 97 % 0 mm
09:19 2.9 °C 2.4 °C 1027.3 hPa SSW 3.7 km/h   97 % 0 mm
09:24 3.4 °C 2.9 °C 1027.3 hPa SSW 3.7 km/h 2.7 km/h 97 % 0 mm
09:29 3.8 °C 3.4 °C 1027.3 hPa Calm     97 % 0 mm
09:34 4.4 °C 3.9 °C 1027.3 hPa North 5.6 km/h 3.5 km/h 97 % 0 mm
09:39 4.8 °C 4.4 °C 1027.3 hPa SSW 5.6 km/h 1.4 km/h 97 % 0 mm
09:44 5.3 °C 4.8 °C 1027.7 hPa SSW 8 km/h 7.4 km/h 97 % 0 mm
09:49 5.6 °C 5.1 °C 1027.7 hPa SSW 9.3 km/h 6.9 km/h 97 % 0 mm
09:54 5.7 °C 5.2 °C 1027.7 hPa SSW 11.1 km/h 8.7 km/h 97 % 0 mm
09:59 5.8 °C 5.4 °C 1028 hPa SSW 9.7 km/h 8 km/h 97 % 0 mm
10:04 6 °C 5.4 °C 1028 hPa SW 13 km/h 10.8 km/h 96 % 0 mm
10:09 6.4 °C 5.8 °C 1028 hPa SW 9.3 km/h 8.5 km/h 96 % 0 mm
10:14 6.8 °C 5.9 °C 1028.3 hPa SW 14.8 km/h 11.4 km/h 94 % 0 mm
10:19 7.2 °C 6.2 °C 1028.3 hPa SW 13 km/h 8.7 km/h 93 % 0 mm
10:24 7.5 °C 5.9 °C 1028.7 hPa West 20.4 km/h 16.1 km/h 90 % 0 mm
10:29 7.6 °C 5.7 °C 1028.7 hPa West 13 km/h 10.9 km/h 88 % 0 mm
10:34 7.8 °C 5.6 °C 1028.7 hPa West 16.7 km/h 8.4 km/h 86 % 0 mm
10:39 7.8 °C 5.4 °C 1028.7 hPa West 16.7 km/h 11.1 km/h 85 % 0 mm
10:44 7.9 °C 5.2 °C 1028.7 hPa West 14.8 km/h 10.5 km/h 83 % 0 mm
10:49 8.1 °C 5.2 °C 1028.7 hPa West 14.8 km/h 11.3 km/h 82 % 0 mm
10:54 8.3 °C 5.1 °C 1028.7 hPa West 9.7 km/h 9.5 km/h 80 % 0 mm
10:59 8.7 °C 5.1 °C 1028.7 hPa West 14.8 km/h 6.8 km/h 78 % 0 mm
11:04 9 °C 5 °C 1028.7 hPa West 7.4 km/h 6.9 km/h 76 % 0 mm
11:09 9.2 °C 5 °C 1028.7 hPa West 5.6 km/h 5.5 km/h 75 % 0 mm
11:14 9.3 °C 5.1 °C 1028.7 hPa West 7.4 km/h 6.4 km/h 75 % 0 mm
11:19 9.3 °C 4.9 °C 1028.7 hPa West 11.1 km/h 9.2 km/h 74 % 0 mm
11:24 9.4 °C 5.2 °C 1028.3 hPa West 8 km/h 8.7 km/h 75 % 0 mm
11:29 9.5 °C 5.1 °C 1028.3 hPa West 5.6 km/h 6.9 km/h 74 % 0 mm
11:34 9.6 °C 5.2 °C 1028 hPa West 9.3 km/h 5.3 km/h 74 % 0 mm
11:39 9.7 °C 5.3 °C 1028 hPa West 11.1 km/h 5.8 km/h 74 % 0 mm
11:44 9.9 °C 5.4 °C 1027.7 hPa West 11.1 km/h 7.9 km/h 74 % 0 mm
11:49 10.1 °C 5.7 °C 1027.7 hPa West 3.7 km/h 0.6 km/h 74 % 0 mm
11:54 10.4 °C 5.8 °C 1027.7 hPa West 8 km/h 6.1 km/h 73 % 0 mm
11:59 10.3 °C 5.1 °C 1027.3 hPa West 11.1 km/h 5.3 km/h 70 % 0 mm
12:04 10.3 °C 5.7 °C 1027.7 hPa West 5.6 km/h 5 km/h 73 % 0 mm
12:09 10.6 °C 6.3 °C 1027.3 hPa West 5.6 km/h 3.9 km/h 75 % 0 mm
12:14 10.5 °C 4.6 °C 1027.3 hPa West 7.4 km/h 3.9 km/h 67 % 0 mm
12:19 10.6 °C 4.9 °C 1027.3 hPa West 7.4 km/h 2.9 km/h 68 % 0 mm
12:24 10.7 °C 4.8 °C 1027 hPa West 7.4 km/h 6.4 km/h 67 % 0 mm
12:29 10.8 °C 4.4 °C 1027 hPa West 6.4 km/h 3.2 km/h 65 % 0 mm
12:34 10.7 °C 3.9 °C 1027 hPa West 7.4 km/h 8 km/h 63 % 0 mm
12:39 10.7 °C 4.1 °C 1026.6 hPa West 11.1 km/h 7.2 km/h 64 % 0 mm
12:44 10.9 °C 5 °C 1027 hPa West 11.1 km/h 7.9 km/h 67 % 0 mm
12:49 10.9 °C 4.6 °C 1026.6 hPa West 5.6 km/h 4.2 km/h 65 % 0 mm
12:54 11.1 °C 4.7 °C 1026.6 hPa North 5.6 km/h 3.2 km/h 65 % 0 mm
12:59 11.1 °C 4.7 °C 1026.3 hPa West 11.1 km/h 5.6 km/h 65 % 0 mm
13:04 11.2 °C 4.8 °C 1026.3 hPa West 7.4 km/h 4.7 km/h 65 % 0 mm
13:09 11.4 °C 4.9 °C 1026.3 hPa WNW 8 km/h 7.1 km/h 64 % 0 mm
13:14 11.4 °C 4.3 °C 1026 hPa WNW 9.3 km/h 7.7 km/h 62 % 0 mm
13:19 11.3 °C 4.5 °C 1026 hPa NW 11.3 km/h 5.5 km/h 63 % 0 mm
13:24 11.2 °C 4.2 °C 1026 hPa NNW 9.7 km/h 7.9 km/h 62 % 0 mm
13:29 11.2 °C 4.2 °C 1026 hPa NNW 9.3 km/h 5 km/h 62 % 0 mm
13:34 11.3 °C 4.3 °C 1026 hPa North 7.4 km/h 4.3 km/h 62 % 0 mm
13:39 11.4 °C 4.6 °C 1025.6 hPa North 14.8 km/h 7.2 km/h 63 % 0 mm
13:44 11.4 °C 4.4 °C 1025.6 hPa NNE 14.8 km/h 9.5 km/h 62 % 0 mm
13:49 11.5 °C 4.4 °C 1025.6 hPa NNE 6.4 km/h 6.1 km/h 62 % 0 mm
13:54 11.5 °C 4.7 °C 1025.6 hPa NE 13 km/h 6.9 km/h 63 % 0 mm
13:59 11.4 °C 4.3 °C 1025.6 hPa NE 5.6 km/h 4 km/h 62 % 0 mm
14:04 11.4 °C 4.6 °C 1025.6 hPa NE 5.6 km/h 2.6 km/h 63 % 0 mm
14:09 11.4 °C 4.6 °C 1025.6 hPa NE 11.1 km/h 4 km/h 63 % 0 mm
14:14 11.2 °C 4.7 °C 1025.6 hPa NE 7.4 km/h 4.8 km/h 64 % 0 mm
14:19 11.1 °C 4.6 °C 1025.6 hPa NE 13 km/h 6.9 km/h 64 % 0 mm
14:24 11.1 °C 4.8 °C 1025.6 hPa NE 9.7 km/h 9.7 km/h 65 % 0 mm
14:29 11.2 °C 4.7 °C 1025.6 hPa NE 11.1 km/h 8.4 km/h 64 % 0 mm
14:34 11.3 °C 4.8 °C 1025.6 hPa NE 13 km/h 6 km/h 64 % 0 mm
14:39 11.4 °C 4.8 °C 1025.6 hPa NE 14.8 km/h 9.8 km/h 64 % 0 mm
14:44 11.6 °C 5.2 °C 1025.6 hPa NE 6.4 km/h 4.8 km/h 65 % 0 mm
14:49 11.7 °C 5.3 °C 1025.6 hPa NE 9.3 km/h 5.8 km/h 65 % 0 mm
14:54 11.5 °C 5.2 °C 1025.6 hPa NE 5.6 km/h 6 km/h 65 % 0 mm
14:59 11.4 °C 5.1 °C 1025.6 hPa NE 14.8 km/h 7.7 km/h 65 % 0 mm
15:04 11.2 °C 5.1 °C 1025.6 hPa NE 11.1 km/h 8 km/h 66 % 0 mm
15:09 11.2 °C 5.3 °C 1026 hPa NNE 14.5 km/h 9.5 km/h 67 % 0 mm
15:14 11.1 °C 5.4 °C 1026 hPa NNE 13 km/h 6.6 km/h 68 % 0 mm
15:19 11 °C 5.3 °C 1026 hPa NNE 5.6 km/h 6.8 km/h 68 % 0 mm
15:24 10.9 °C 5.2 °C 1026 hPa NNE 11.1 km/h 4.5 km/h 68 % 0 mm
15:29 10.9 °C 5.2 °C 1026 hPa North 14.8 km/h 8.4 km/h 68 % 0 mm
15:34 10.8 °C 5.1 °C 1026 hPa North 9.3 km/h 8.5 km/h 68 % 0 mm
15:39 10.7 °C 5.2 °C 1026 hPa North 5.6 km/h 5.6 km/h 69 % 0 mm
15:44 10.5 °C 5.1 °C 1026 hPa North 11.1 km/h 6.1 km/h 69 % 0 mm
15:49 10.3 °C 4.9 °C 1026 hPa North 9.3 km/h 6.8 km/h 69 % 0 mm
15:54 10.3 °C 5.1 °C 1025.6 hPa North 5.6 km/h 2.1 km/h 70 % 0 mm
15:59 10.2 °C 4.9 °C 1025.6 hPa North 7.4 km/h 5.5 km/h 70 % 0 mm
16:04 10.1 °C 5.1 °C 1025.6 hPa North 5.6 km/h 4 km/h 71 % 0 mm
16:09 10.1 °C 5.2 °C 1025.6 hPa North 5.6 km/h 2.9 km/h 72 % 0 mm
16:14 10 °C 5.2 °C 1025.6 hPa North 6.4 km/h 4.8 km/h 72 % 0 mm
16:19 10 °C 5.2 °C 1025.6 hPa North 5.6 km/h 4.5 km/h 72 % 0 mm
16:24 10 °C 5.2 °C 1025.6 hPa North 5.6 km/h 3.5 km/h 72 % 0 mm
16:29 10 °C 5.2 °C 1025.6 hPa North 3.7 km/h 1 km/h 72 % 0 mm
16:34 9.9 °C 5.1 °C 1025.6 hPa North 5.6 km/h 1.8 km/h 72 % 0 mm
16:39 9.9 °C 5.1 °C 1025.6 hPa North 3.7 km/h 2.6 km/h 72 % 0 mm
16:44 9.9 °C 5.3 °C 1025.6 hPa North 5.6 km/h 1.6 km/h 73 % 0 mm
16:49 9.8 °C 5.2 °C 1025.6 hPa North 5.6 km/h 3.1 km/h 73 % 0 mm
16:54 9.7 °C 5.1 °C 1026 hPa North 3.7 km/h 1.6 km/h 73 % 0 mm
16:59 9.6 °C 4.9 °C 1026 hPa North 3.7 km/h 2.7 km/h 73 % 0 mm
17:04 9.4 °C 5 °C 1026 hPa North 5.6 km/h 1.9 km/h 74 % 0 mm
17:09 9.2 °C 4.8 °C 1026 hPa North 5.6 km/h 2.4 km/h 74 % 0 mm
17:14 9.1 °C 4.7 °C 1026 hPa North 5.6 km/h 4.3 km/h 74 % 0 mm
17:19 8.9 °C 4.7 °C 1026 hPa North 5.6 km/h 3.1 km/h 75 % 0 mm
17:24 8.7 °C 4.6 °C 1026 hPa North 3.7 km/h 2.1 km/h 75 % 0 mm
17:29 8.6 °C 4.4 °C 1026 hPa North 5.6 km/h 4 km/h 75 % 0 mm
17:34 8.4 °C 4.3 °C 1026 hPa North 5.6 km/h 2.4 km/h 75 % 0 mm
17:39 8.3 °C 4.3 °C 1026 hPa North 5.6 km/h 2.7 km/h 76 % 0 mm
17:44 8.2 °C 4.2 °C 1026 hPa North 5.6 km/h 2.6 km/h 76 % 0 mm
17:49 8 °C 4 °C 1026.3 hPa North 3.7 km/h 1.6 km/h 76 % 0 mm
17:54 7.9 °C 4.1 °C 1026.3 hPa North 4.8 km/h 3.5 km/h 77 % 0 mm
17:59 7.8 °C 4 °C 1026.3 hPa North 5.6 km/h 3.1 km/h 77 % 0 mm
18:04 7.7 °C 4.1 °C 1026.3 hPa North 3.7 km/h 1 km/h 78 % 0 mm
18:09 7.5 °C 3.9 °C 1026.3 hPa North 3.7 km/h 1.6 km/h 78 % 0 mm
18:14 7.4 °C 3.8 °C 1026.3 hPa North 5.6 km/h 1.8 km/h 78 % 0 mm
18:19 7.3 °C 3.9 °C 1026.3 hPa North 5.6 km/h 3.2 km/h 79 % 0 mm
18:24 7.2 °C 3.8 °C 1026.6 hPa North 3.7 km/h 3.2 km/h 79 % 0 mm
18:29 7.1 °C 3.9 °C 1026.6 hPa North 3.7 km/h 1.8 km/h 80 % 0 mm
18:34 7 °C 3.8 °C 1026.6 hPa North 5.6 km/h 2.6 km/h 80 % 0 mm
18:39 6.9 °C 3.7 °C 1026.6 hPa North 5.6 km/h 1.3 km/h 80 % 0 mm
18:44 6.8 °C 3.7 °C 1026.6 hPa North 3.7 km/h 1.6 km/h 81 % 0 mm
18:49 6.7 °C 3.6 °C 1026.3 hPa North 3.7 km/h 1.6 km/h 81 % 0 mm
18:54 6.5 °C 3.5 °C 1026.6 hPa North 3.7 km/h 2.7 km/h 81 % 0 mm
18:59 6.4 °C 3.4 °C 1026.6 hPa North 1.6 km/h 0.2 km/h 81 % 0 mm
19:04 6.3 °C 3.5 °C 1026.6 hPa North 3.7 km/h 2.4 km/h 82 % 0 mm
19:09 6.2 °C 3.4 °C 1026.6 hPa North 5.6 km/h 2.9 km/h 82 % 0 mm
19:14 6.2 °C 3.5 °C 1026.6 hPa North 5.6 km/h 3.2 km/h 83 % 0 mm
19:19 6.1 °C 3.4 °C 1026.6 hPa North 6.4 km/h 4.2 km/h 83 % 0 mm
19:24 6.1 °C 3.4 °C 1026.3 hPa North 5.6 km/h 3.2 km/h 83 % 0 mm
19:29 6.1 °C 3.4 °C 1026.3 hPa North 5.6 km/h 3.1 km/h 83 % 0 mm
19:34 6.1 °C 3.4 °C 1026.3 hPa North 5.6 km/h 3.4 km/h 83 % 0 mm
19:39 6.1 °C 3.4 °C 1026.3 hPa North 6.4 km/h 5.5 km/h 83 % 0 mm
19:44 6.1 °C 3.4 °C 1026.3 hPa North 5.6 km/h 3.4 km/h 83 % 0 mm
19:49 6.1 °C 3.4 °C 1026.3 hPa North 5.6 km/h 4.2 km/h 83 % 0 mm
19:54 6.1 °C 3.4 °C 1026.3 hPa North 5.6 km/h 4.8 km/h 83 % 0 mm
19:59 6.2 °C 3.5 °C 1026.3 hPa North 8 km/h 6.1 km/h 83 % 0 mm
20:04 6.3 °C 3.7 °C 1026.3 hPa North 13 km/h 10 km/h 83 % 0 mm
20:09 6.5 °C 3.8 °C 1026.3 hPa North 13 km/h 8.4 km/h 83 % 0 mm
20:14 6.6 °C 3.8 °C 1026.3 hPa North 11.3 km/h 10.1 km/h 82 % 0 mm
20:19 6.8 °C 3.9 °C 1026.3 hPa North 16.7 km/h 11.7 km/h 82 % 0 mm
20:24 6.9 °C 3.8 °C 1026 hPa North 14.8 km/h 9.5 km/h 81 % 0 mm
20:29 6.9 °C 3.9 °C 1026 hPa North 13 km/h 11.3 km/h 81 % 0 mm
20:34 7 °C 3.9 °C 1026.3 hPa North 14.8 km/h 6.4 km/h 81 % 0 mm
20:39 7 °C 3.8 °C 1026.3 hPa North 16.7 km/h 8 km/h 80 % 0 mm
20:44 7.1 °C 3.8 °C 1026.3 hPa North 16.7 km/h 11.1 km/h 80 % 0 mm
20:49 7.1 °C 3.9 °C 1026.3 hPa North 12.9 km/h 9.8 km/h 80 % 0 mm
20:54 7.1 °C 3.7 °C 1026 hPa North 16.7 km/h 12.2 km/h 79 % 0 mm
20:59 7.1 °C 3.7 °C 1026.3 hPa North 16.7 km/h 8.7 km/h 79 % 0 mm
21:04 7.1 °C 3.7 °C 1026 hPa North 13 km/h 10.6 km/h 79 % 0 mm
21:09 7.2 °C 3.8 °C 1026.3 hPa North 13 km/h 10.3 km/h 79 % 0 mm
21:14 7.2 °C 3.6 °C 1026.3 hPa North 12.9 km/h 8 km/h 78 % 0 mm
21:19 7.2 °C 3.6 °C 1026.3 hPa North 11.1 km/h 8.7 km/h 78 % 0 mm
21:24 7.2 °C 3.7 °C 1026 hPa North 14.8 km/h 8.4 km/h 78 % 0 mm
21:29 7.2 °C 3.4 °C 1026.3 hPa North 14.8 km/h 6.6 km/h 77 % 0 mm
21:34 7.2 °C 3.4 °C 1026 hPa North 13 km/h 6.9 km/h 77 % 0 mm
21:39 7.2 °C 3.4 °C 1026.3 hPa North 16.7 km/h 9.5 km/h 77 % 0 mm
21:44 7.2 °C 3.4 °C 1026.3 hPa North 14.8 km/h 8.4 km/h 77 % 0 mm
21:49 7.2 °C 3.4 °C 1026.3 hPa North 13 km/h 10.5 km/h 77 % 0 mm
21:54 7.2 °C 3.4 °C 1026 hPa North 13 km/h 6.4 km/h 77 % 0 mm
21:59 7.2 °C 3.2 °C 1026 hPa North 9.3 km/h 7.2 km/h 76 % 0 mm
22:04 7.2 °C 3.2 °C 1026 hPa North 8 km/h 7.2 km/h 76 % 0 mm
22:09 7.2 °C 3.3 °C 1026 hPa North 13 km/h 6.1 km/h 76 % 0 mm
22:14 7.2 °C 3.1 °C 1026 hPa North 16.7 km/h 10.1 km/h 75 % 0 mm
22:19 7.3 °C 3.1 °C 1025.6 hPa North 13 km/h 10.3 km/h 75 % 0 mm
22:24 7.3 °C 3.2 °C 1026 hPa North 9.3 km/h 9.8 km/h 75 % 0 mm
22:29 7.3 °C 3 °C 1026 hPa North 16.7 km/h 8.4 km/h 74 % 0 mm
22:34 7.4 °C 3.1 °C 1026 hPa North 18.5 km/h 10 km/h 74 % 0 mm
22:39 7.4 °C 3.1 °C 1026 hPa North 13 km/h 10 km/h 74 % 0 mm
22:44 7.4 °C 3.1 °C 1026 hPa North 11.1 km/h 6 km/h 74 % 0 mm
22:49 7.3 °C 3 °C 1026 hPa North 9.3 km/h 7.2 km/h 74 % 0 mm
22:54 7.3 °C 3.1 °C 1026 hPa North 13 km/h 10.5 km/h 75 % 0 mm
22:59 7.3 °C 3.1 °C 1026 hPa North 14.8 km/h 13.7 km/h 75 % 0 mm
23:04 7.3 °C 3.1 °C 1026 hPa NNE 16.1 km/h 13.7 km/h 75 % 0 mm
23:09 7.2 °C 3.1 °C 1026 hPa North 18.5 km/h 11.3 km/h 75 % 0 mm
23:14 7.2 °C 3.1 °C 1025.6 hPa NNE 18.5 km/h 12.2 km/h 75 % 0 mm
23:19 7.2 °C 3.1 °C 1025.6 hPa NNE 18.5 km/h 13.7 km/h 75 % 0 mm
23:24 7.2 °C 3.1 °C 1025.6 hPa NNE 18.5 km/h 13.8 km/h 75 % 0 mm
23:29 7.2 °C 3.2 °C 1025.6 hPa North 14.8 km/h 7.6 km/h 76 % 0 mm
23:34 7.1 °C 3.2 °C 1025.3 hPa North 16.7 km/h 8.4 km/h 76 % 0 mm
23:39 7.1 °C 3.1 °C 1025.6 hPa North 16.7 km/h 13 km/h 76 % 0 mm
23:44 6.9 °C 3 °C 1025.6 hPa North 14.8 km/h 10.8 km/h 76 % 0 mm
23:49 6.9 °C 3.1 °C 1025.6 hPa North 18.5 km/h 13.4 km/h 77 % 0 mm
23:54 6.8 °C 3.1 °C 1025.3 hPa North 20.4 km/h 14.3 km/h 77 % 0 mm
23:59 6.8 °C 3.3 °C 1025.3 hPa NNE 18.5 km/h 11.6 km/h 78 % 0 mm
Ararat Weather
Compliments of Weather Underground - 2.25 mb
Click here to send mail.


ABOUT

Live weather data from Ararat, Victoria, Australia, 3377
Data uploaded from Cumulus every 5 minutes to Weather Underground.
This site then downloads the raw data for formatting and display.
Metric and imperial data can be displayed. Graphs and historical data available.
Includes Sun and Moon times and rain image live from BOM.

Check out Ararat Weather on Facebook, Twitter and Google +

Help support ongoing costs by checking out the ads





Follow @AraratWeather